sensor_id;sensor_type;location;lat;lon;timestamp;P1;durP1;ratioP1;P2;durP2;ratioP2
67092;SDS011;54011;50.772;7.730;2023-04-08T00:00:34;45.38;;;16.00;;
67092;SDS011;54011;50.772;7.730;2023-04-08T00:03:00;37.55;;;16.42;;
67092;SDS011;54011;50.772;7.730;2023-04-08T00:05:26;37.72;;;14.82;;
67092;SDS011;54011;50.772;7.730;2023-04-08T00:07:52;36.70;;;15.80;;
67092;SDS011;54011;50.772;7.730;2023-04-08T00:10:17;36.38;;;16.48;;
67092;SDS011;54011;50.772;7.730;2023-04-08T00:12:43;39.88;;;16.80;;
67092;SDS011;54011;50.772;7.730;2023-04-08T00:15:09;40.08;;;16.67;;
67092;SDS011;54011;50.772;7.730;2023-04-08T00:17:34;44.00;;;17.15;;
67092;SDS011;54011;50.772;7.730;2023-04-08T00:20:00;31.42;;;14.82;;
67092;SDS011;54011;50.772;7.730;2023-04-08T00:22:25;35.15;;;15.50;;
67092;SDS011;54011;50.772;7.730;2023-04-08T00:24:52;35.17;;;15.07;;
67092;SDS011;54011;50.772;7.730;2023-04-08T00:27:17;37.10;;;15.30;;
67092;SDS011;54011;50.772;7.730;2023-04-08T00:29:43;39.67;;;15.63;;
67092;SDS011;54011;50.772;7.730;2023-04-08T00:32:08;35.03;;;14.43;;
67092;SDS011;54011;50.772;7.730;2023-04-08T00:34:34;34.38;;;14.35;;
67092;SDS011;54011;50.772;7.730;2023-04-08T00:37:01;34.53;;;14.48;;
67092;SDS011;54011;50.772;7.730;2023-04-08T00:39:27;43.72;;;14.88;;
67092;SDS011;54011;50.772;7.730;2023-04-08T00:41:53;45.10;;;14.48;;
67092;SDS011;54011;50.772;7.730;2023-04-08T00:44:20;68.97;;;15.57;;
67092;SDS011;54011;50.772;7.730;2023-04-08T00:46:45;138.95;;;16.23;;
67092;SDS011;54011;50.772;7.730;2023-04-08T00:49:13;63.40;;;14.27;;
67092;SDS011;54011;50.772;7.730;2023-04-08T00:51:39;212.80;;;15.90;;
67092;SDS011;54011;50.772;7.730;2023-04-08T00:54:06;110.15;;;12.77;;
67092;SDS011;54011;50.772;7.730;2023-04-08T00:56:31;90.53;;;13.23;;
67092;SDS011;54011;50.772;7.730;2023-04-08T00:58:59;65.07;;;11.93;;
67092;SDS011;54011;50.772;7.730;2023-04-08T01:01:33;156.13;;;14.00;;
67092;SDS011;54011;50.772;7.730;2023-04-08T01:09:56;370.15;;;19.27;;
67092;SDS011;54011;50.772;7.730;2023-04-08T01:12:28;158.25;;;15.00;;
67092;SDS011;54011;50.772;7.730;2023-04-08T01:15:04;288.13;;;16.70;;
67092;SDS011;54011;50.772;7.730;2023-04-08T01:17:32;305.20;;;17.75;;
67092;SDS011;54011;50.772;7.730;2023-04-08T01:20:01;199.32;;;13.30;;
67092;SDS011;54011;50.772;7.730;2023-04-08T01:23:12;216.48;;;11.70;;
67092;SDS011;54011;50.772;7.730;2023-04-08T01:25:29;374.25;;;16.63;;
67092;SDS011;54011;50.772;7.730;2023-04-08T01:27:59;252.85;;;13.25;;
67092;SDS011;54011;50.772;7.730;2023-04-08T01:30:27;329.40;;;14.55;;
67092;SDS011;54011;50.772;7.730;2023-04-08T01:32:56;273.63;;;14.00;;
67092;SDS011;54011;50.772;7.730;2023-04-08T01:35:23;223.98;;;13.40;;
67092;SDS011;54011;50.772;7.730;2023-04-08T01:37:50;412.05;;;16.33;;
67092;SDS011;54011;50.772;7.730;2023-04-08T01:40:18;400.85;;;15.40;;
67092;SDS011;54011;50.772;7.730;2023-04-08T01:42:47;299.33;;;15.20;;
67092;SDS011;54011;50.772;7.730;2023-04-08T01:45:15;285.35;;;12.98;;
67092;SDS011;54011;50.772;7.730;2023-04-08T01:47:41;438.88;;;17.60;;
67092;SDS011;54011;50.772;7.730;2023-04-08T01:50:09;245.82;;;12.90;;
67092;SDS011;54011;50.772;7.730;2023-04-08T01:52:37;244.23;;;14.35;;
67092;SDS011;54011;50.772;7.730;2023-04-08T01:55:04;243.57;;;14.90;;
67092;SDS011;54011;50.772;7.730;2023-04-08T01:57:31;175.80;;;13.38;;
67092;SDS011;54011;50.772;7.730;2023-04-08T02:00:01;153.55;;;13.13;;
67092;SDS011;54011;50.772;7.730;2023-04-08T02:02:45;102.15;;;13.43;;
67092;SDS011;54011;50.772;7.730;2023-04-08T02:05:12;292.10;;;15.95;;
67092;SDS011;54011;50.772;7.730;2023-04-08T02:07:38;272.20;;;16.23;;
67092;SDS011;54011;50.772;7.730;2023-04-08T02:10:04;331.33;;;17.52;;
67092;SDS011;54011;50.772;7.730;2023-04-08T02:12:31;341.05;;;18.30;;
67092;SDS011;54011;50.772;7.730;2023-04-08T02:14:57;186.38;;;15.65;;
67092;SDS011;54011;50.772;7.730;2023-04-08T02:20:03;274.60;;;16.35;;
67092;SDS011;54011;50.772;7.730;2023-04-08T02:22:47;305.95;;;17.45;;
67092;SDS011;54011;50.772;7.730;2023-04-08T02:25:24;236.60;;;15.55;;
67092;SDS011;54011;50.772;7.730;2023-04-08T02:27:50;212.93;;;16.70;;
67092;SDS011;54011;50.772;7.730;2023-04-08T02:30:17;180.13;;;16.45;;
67092;SDS011;54011;50.772;7.730;2023-04-08T02:32:43;172.07;;;16.75;;
67092;SDS011;54011;50.772;7.730;2023-04-08T02:35:10;47.08;;;14.85;;
67092;SDS011;54011;50.772;7.730;2023-04-08T02:37:36;313.02;;;19.55;;
67092;SDS011;54011;50.772;7.730;2023-04-08T02:40:02;270.90;;;16.73;;
67092;SDS011;54011;50.772;7.730;2023-04-08T02:42:28;180.95;;;16.23;;
67092;SDS011;54011;50.772;7.730;2023-04-08T02:44:53;57.40;;;14.38;;
67092;SDS011;54011;50.772;7.730;2023-04-08T02:47:19;63.72;;;15.27;;
67092;SDS011;54011;50.772;7.730;2023-04-08T02:49:45;85.85;;;15.40;;
67092;SDS011;54011;50.772;7.730;2023-04-08T02:52:11;46.97;;;14.73;;
67092;SDS011;54011;50.772;7.730;2023-04-08T02:54:36;36.67;;;15.00;;
67092;SDS011;54011;50.772;7.730;2023-04-08T02:57:02;36.85;;;13.65;;
67092;SDS011;54011;50.772;7.730;2023-04-08T02:59:28;34.25;;;13.95;;
67092;SDS011;54011;50.772;7.730;2023-04-08T03:01:53;35.72;;;14.20;;
67092;SDS011;54011;50.772;7.730;2023-04-08T03:04:20;34.65;;;14.52;;
67092;SDS011;54011;50.772;7.730;2023-04-08T03:06:45;37.30;;;14.40;;
67092;SDS011;54011;50.772;7.730;2023-04-08T03:09:11;34.00;;;15.05;;
67092;SDS011;54011;50.772;7.730;2023-04-08T03:11:36;37.72;;;15.02;;
67092;SDS011;54011;50.772;7.730;2023-04-08T03:14:02;34.63;;;13.05;;
67092;SDS011;54011;50.772;7.730;2023-04-08T03:16:27;49.40;;;14.80;;
67092;SDS011;54011;50.772;7.730;2023-04-08T03:18:53;30.90;;;13.55;;
67092;SDS011;54011;50.772;7.730;2023-04-08T03:21:18;75.45;;;14.27;;
67092;SDS011;54011;50.772;7.730;2023-04-08T03:23:43;32.92;;;13.40;;
67092;SDS011;54011;50.772;7.730;2023-04-08T03:26:09;132.50;;;15.82;;
67092;SDS011;54011;50.772;7.730;2023-04-08T03:28:35;37.08;;;13.73;;
67092;SDS011;54011;50.772;7.730;2023-04-08T03:31:01;328.15;;;16.88;;
67092;SDS011;54011;50.772;7.730;2023-04-08T03:33:28;385.23;;;18.35;;
67092;SDS011;54011;50.772;7.730;2023-04-08T03:35:53;179.90;;;13.93;;
67092;SDS011;54011;50.772;7.730;2023-04-08T03:38:19;309.63;;;14.98;;
67092;SDS011;54011;50.772;7.730;2023-04-08T03:40:44;439.20;;;19.00;;
67092;SDS011;54011;50.772;7.730;2023-04-08T03:43:10;330.00;;;14.77;;
67092;SDS011;54011;50.772;7.730;2023-04-08T03:45:36;289.95;;;13.40;;
67092;SDS011;54011;50.772;7.730;2023-04-08T03:48:01;143.48;;;11.73;;
67092;SDS011;54011;50.772;7.730;2023-04-08T03:50:27;157.68;;;10.57;;
67092;SDS011;54011;50.772;7.730;2023-04-08T03:52:53;217.18;;;11.05;;
67092;SDS011;54011;50.772;7.730;2023-04-08T03:55:18;302.75;;;13.82;;
67092;SDS011;54011;50.772;7.730;2023-04-08T03:57:43;312.85;;;14.48;;
67092;SDS011;54011;50.772;7.730;2023-04-08T04:00:10;68.85;;;11.40;;
67092;SDS011;54011;50.772;7.730;2023-04-08T04:02:38;111.32;;;11.65;;
67092;SDS011;54011;50.772;7.730;2023-04-08T04:05:04;85.63;;;11.82;;
67092;SDS011;54011;50.772;7.730;2023-04-08T04:07:29;119.40;;;11.32;;
67092;SDS011;54011;50.772;7.730;2023-04-08T04:09:55;211.40;;;13.43;;
67092;SDS011;54011;50.772;7.730;2023-04-08T04:12:21;75.95;;;12.02;;
67092;SDS011;54011;50.772;7.730;2023-04-08T04:14:47;123.90;;;13.63;;
67092;SDS011;54011;50.772;7.730;2023-04-08T04:17:12;33.22;;;13.00;;
67092;SDS011;54011;50.772;7.730;2023-04-08T04:19:38;76.65;;;13.43;;
67092;SDS011;54011;50.772;7.730;2023-04-08T04:22:03;41.63;;;12.35;;
67092;SDS011;54011;50.772;7.730;2023-04-08T04:24:30;178.10;;;14.98;;
67092;SDS011;54011;50.772;7.730;2023-04-08T04:26:55;141.20;;;15.32;;
67092;SDS011;54011;50.772;7.730;2023-04-08T04:29:21;31.00;;;10.63;;
67092;SDS011;54011;50.772;7.730;2023-04-08T04:31:46;112.75;;;12.13;;
67092;SDS011;54011;50.772;7.730;2023-04-08T04:34:12;112.93;;;10.48;;
67092;SDS011;54011;50.772;7.730;2023-04-08T04:36:37;167.02;;;12.13;;
67092;SDS011;54011;50.772;7.730;2023-04-08T04:39:02;150.27;;;10.55;;
67092;SDS011;54011;50.772;7.730;2023-04-08T04:41:28;57.63;;;8.10;;
67092;SDS011;54011;50.772;7.730;2023-04-08T04:43:53;81.47;;;10.75;;
67092;SDS011;54011;50.772;7.730;2023-04-08T04:46:19;59.60;;;10.50;;
67092;SDS011;54011;50.772;7.730;2023-04-08T04:48:44;24.23;;;9.23;;
67092;SDS011;54011;50.772;7.730;2023-04-08T04:51:10;21.35;;;9.50;;
67092;SDS011;54011;50.772;7.730;2023-04-08T04:53:35;25.15;;;8.68;;
67092;SDS011;54011;50.772;7.730;2023-04-08T04:56:04;20.25;;;8.40;;
67092;SDS011;54011;50.772;7.730;2023-04-08T04:58:29;16.38;;;8.55;;
67092;SDS011;54011;50.772;7.730;2023-04-08T05:00:55;15.50;;;8.50;;
67092;SDS011;54011;50.772;7.730;2023-04-08T05:03:21;22.50;;;12.10;;
67092;SDS011;54011;50.772;7.730;2023-04-08T05:05:53;19.95;;;8.55;;
67092;SDS011;54011;50.772;7.730;2023-04-08T05:08:19;17.15;;;7.72;;
67092;SDS011;54011;50.772;7.730;2023-04-08T05:10:45;21.60;;;9.35;;
67092;SDS011;54011;50.772;7.730;2023-04-08T05:13:14;75.93;;;9.65;;
67092;SDS011;54011;50.772;7.730;2023-04-08T05:15:40;28.75;;;8.23;;
67092;SDS011;54011;50.772;7.730;2023-04-08T05:18:06;15.35;;;7.47;;
67092;SDS011;54011;50.772;7.730;2023-04-08T05:20:32;15.20;;;8.38;;
67092;SDS011;54011;50.772;7.730;2023-04-08T05:22:57;15.23;;;8.82;;
67092;SDS011;54011;50.772;7.730;2023-04-08T05:25:22;17.63;;;9.43;;
67092;SDS011;54011;50.772;7.730;2023-04-08T05:27:48;16.00;;;8.75;;
67092;SDS011;54011;50.772;7.730;2023-04-08T05:30:14;19.20;;;9.73;;
67092;SDS011;54011;50.772;7.730;2023-04-08T05:32:41;17.40;;;9.48;;
67092;SDS011;54011;50.772;7.730;2023-04-08T05:35:07;19.77;;;10.95;;
67092;SDS011;54011;50.772;7.730;2023-04-08T05:37:33;19.60;;;10.52;;
67092;SDS011;54011;50.772;7.730;2023-04-08T05:39:59;20.50;;;11.13;;
67092;SDS011;54011;50.772;7.730;2023-04-08T05:42:24;22.70;;;11.32;;
67092;SDS011;54011;50.772;7.730;2023-04-08T05:44:51;22.38;;;11.65;;
67092;SDS011;54011;50.772;7.730;2023-04-08T05:47:16;22.85;;;11.82;;
67092;SDS011;54011;50.772;7.730;2023-04-08T05:49:42;20.98;;;12.13;;
67092;SDS011;54011;50.772;7.730;2023-04-08T05:52:07;19.15;;;10.50;;
67092;SDS011;54011;50.772;7.730;2023-04-08T05:54:32;16.98;;;9.90;;
67092;SDS011;54011;50.772;7.730;2023-04-08T05:56:58;23.48;;;11.52;;
67092;SDS011;54011;50.772;7.730;2023-04-08T05:59:24;22.80;;;12.00;;
67092;SDS011;54011;50.772;7.730;2023-04-08T06:01:49;24.23;;;12.60;;
67092;SDS011;54011;50.772;7.730;2023-04-08T06:04:15;24.98;;;13.07;;
67092;SDS011;54011;50.772;7.730;2023-04-08T06:06:42;24.38;;;13.63;;
67092;SDS011;54011;50.772;7.730;2023-04-08T06:09:08;28.15;;;15.93;;
67092;SDS011;54011;50.772;7.730;2023-04-08T06:11:36;33.63;;;18.25;;
67092;SDS011;54011;50.772;7.730;2023-04-08T06:14:01;28.42;;;16.23;;
67092;SDS011;54011;50.772;7.730;2023-04-08T06:16:28;28.88;;;16.92;;
67092;SDS011;54011;50.772;7.730;2023-04-08T06:18:54;29.13;;;18.08;;
67092;SDS011;54011;50.772;7.730;2023-04-08T06:21:19;31.58;;;17.48;;
67092;SDS011;54011;50.772;7.730;2023-04-08T06:23:45;31.52;;;17.45;;
67092;SDS011;54011;50.772;7.730;2023-04-08T06:26:10;38.90;;;22.02;;
67092;SDS011;54011;50.772;7.730;2023-04-08T06:28:37;41.67;;;22.83;;
67092;SDS011;54011;50.772;7.730;2023-04-08T06:31:02;34.90;;;19.55;;
67092;SDS011;54011;50.772;7.730;2023-04-08T06:33:28;35.00;;;19.88;;
67092;SDS011;54011;50.772;7.730;2023-04-08T06:36:00;27.85;;;17.08;;
67092;SDS011;54011;50.772;7.730;2023-04-08T06:38:29;31.40;;;17.95;;
67092;SDS011;54011;50.772;7.730;2023-04-08T06:41:00;32.00;;;18.83;;
67092;SDS011;54011;50.772;7.730;2023-04-08T06:43:30;32.70;;;17.75;;
67092;SDS011;54011;50.772;7.730;2023-04-08T06:45:57;35.67;;;17.15;;
67092;SDS011;54011;50.772;7.730;2023-04-08T06:48:23;28.80;;;16.58;;
67092;SDS011;54011;50.772;7.730;2023-04-08T06:50:56;29.75;;;17.75;;
67092;SDS011;54011;50.772;7.730;2023-04-08T06:53:23;31.58;;;17.60;;
67092;SDS011;54011;50.772;7.730;2023-04-08T06:55:50;30.40;;;18.23;;
67092;SDS011;54011;50.772;7.730;2023-04-08T06:58:15;36.35;;;18.83;;
67092;SDS011;54011;50.772;7.730;2023-04-08T07:00:41;32.10;;;17.88;;
67092;SDS011;54011;50.772;7.730;2023-04-08T07:03:07;34.42;;;18.42;;
67092;SDS011;54011;50.772;7.730;2023-04-08T07:05:36;36.72;;;19.90;;
67092;SDS011;54011;50.772;7.730;2023-04-08T07:08:02;33.00;;;18.30;;
67092;SDS011;54011;50.772;7.730;2023-04-08T07:10:28;32.70;;;18.70;;
67092;SDS011;54011;50.772;7.730;2023-04-08T07:12:54;30.98;;;18.33;;
67092;SDS011;54011;50.772;7.730;2023-04-08T07:15:19;30.05;;;18.23;;
67092;SDS011;54011;50.772;7.730;2023-04-08T07:17:45;33.58;;;18.58;;
67092;SDS011;54011;50.772;7.730;2023-04-08T07:20:11;33.83;;;19.25;;
67092;SDS011;54011;50.772;7.730;2023-04-08T07:22:38;36.67;;;19.13;;
67092;SDS011;54011;50.772;7.730;2023-04-08T07:25:04;34.15;;;19.42;;
67092;SDS011;54011;50.772;7.730;2023-04-08T07:27:30;35.70;;;18.88;;
67092;SDS011;54011;50.772;7.730;2023-04-08T07:29:58;32.40;;;18.55;;
67092;SDS011;54011;50.772;7.730;2023-04-08T07:32:25;33.50;;;19.17;;
67092;SDS011;54011;50.772;7.730;2023-04-08T07:34:51;32.92;;;19.10;;
67092;SDS011;54011;50.772;7.730;2023-04-08T07:37:17;33.50;;;19.10;;
67092;SDS011;54011;50.772;7.730;2023-04-08T07:39:43;30.63;;;18.85;;
67092;SDS011;54011;50.772;7.730;2023-04-08T07:42:09;29.17;;;17.02;;
67092;SDS011;54011;50.772;7.730;2023-04-08T07:44:35;29.42;;;15.90;;
67092;SDS011;54011;50.772;7.730;2023-04-08T07:47:00;29.05;;;16.92;;
67092;SDS011;54011;50.772;7.730;2023-04-08T07:49:25;31.35;;;16.55;;
67092;SDS011;54011;50.772;7.730;2023-04-08T07:51:51;29.77;;;17.83;;
67092;SDS011;54011;50.772;7.730;2023-04-08T07:54:17;31.80;;;17.05;;
67092;SDS011;54011;50.772;7.730;2023-04-08T07:56:43;28.70;;;17.08;;
67092;SDS011;54011;50.772;7.730;2023-04-08T07:59:09;28.98;;;16.83;;
67092;SDS011;54011;50.772;7.730;2023-04-08T08:01:35;28.13;;;16.65;;
67092;SDS011;54011;50.772;7.730;2023-04-08T08:04:01;29.27;;;17.17;;
67092;SDS011;54011;50.772;7.730;2023-04-08T08:06:27;24.35;;;13.90;;
67092;SDS011;54011;50.772;7.730;2023-04-08T08:08:53;24.77;;;15.93;;
67092;SDS011;54011;50.772;7.730;2023-04-08T08:11:18;29.52;;;16.77;;
67092;SDS011;54011;50.772;7.730;2023-04-08T08:13:45;28.02;;;15.93;;
67092;SDS011;54011;50.772;7.730;2023-04-08T08:16:11;28.77;;;16.60;;
67092;SDS011;54011;50.772;7.730;2023-04-08T08:18:36;28.23;;;17.55;;
67092;SDS011;54011;50.772;7.730;2023-04-08T08:21:04;27.63;;;15.75;;
67092;SDS011;54011;50.772;7.730;2023-04-08T08:23:31;28.17;;;16.83;;
67092;SDS011;54011;50.772;7.730;2023-04-08T08:28:28;36.53;;;16.75;;
67092;SDS011;54011;50.772;7.730;2023-04-08T08:30:55;31.55;;;17.85;;
67092;SDS011;54011;50.772;7.730;2023-04-08T08:33:23;29.02;;;16.45;;
67092;SDS011;54011;50.772;7.730;2023-04-08T08:35:50;27.10;;;16.35;;
67092;SDS011;54011;50.772;7.730;2023-04-08T08:38:17;26.33;;;15.82;;
67092;SDS011;54011;50.772;7.730;2023-04-08T08:40:43;25.15;;;14.75;;
67092;SDS011;54011;50.772;7.730;2023-04-08T08:43:10;26.85;;;16.05;;
67092;SDS011;54011;50.772;7.730;2023-04-08T08:45:37;28.60;;;16.98;;
67092;SDS011;54011;50.772;7.730;2023-04-08T08:48:05;24.58;;;15.52;;
67092;SDS011;54011;50.772;7.730;2023-04-08T08:50:33;23.50;;;12.07;;
67092;SDS011;54011;50.772;7.730;2023-04-08T08:53:00;24.98;;;15.20;;
67092;SDS011;54011;50.772;7.730;2023-04-08T08:55:28;27.23;;;15.38;;
67092;SDS011;54011;50.772;7.730;2023-04-08T08:57:56;26.02;;;15.23;;
67092;SDS011;54011;50.772;7.730;2023-04-08T09:03:18;27.75;;;15.43;;
67092;SDS011;54011;50.772;7.730;2023-04-08T09:05:55;28.67;;;16.00;;
67092;SDS011;54011;50.772;7.730;2023-04-08T09:08:22;28.98;;;16.80;;
67092;SDS011;54011;50.772;7.730;2023-04-08T09:10:48;30.52;;;16.85;;
67092;SDS011;54011;50.772;7.730;2023-04-08T09:13:13;28.85;;;15.95;;
67092;SDS011;54011;50.772;7.730;2023-04-08T09:16:13;27.63;;;16.23;;
67092;SDS011;54011;50.772;7.730;2023-04-08T09:18:34;27.58;;;14.52;;
67092;SDS011;54011;50.772;7.730;2023-04-08T09:21:01;29.00;;;16.42;;
67092;SDS011;54011;50.772;7.730;2023-04-08T09:23:39;30.42;;;16.75;;
67092;SDS011;54011;50.772;7.730;2023-04-08T09:26:15;26.48;;;14.45;;
67092;SDS011;54011;50.772;7.730;2023-04-08T09:28:43;25.83;;;14.13;;
67092;SDS011;54011;50.772;7.730;2023-04-08T09:31:26;26.70;;;15.05;;
67092;SDS011;54011;50.772;7.730;2023-04-08T09:36:19;27.67;;;12.98;;
67092;SDS011;54011;50.772;7.730;2023-04-08T09:38:45;26.83;;;14.40;;
67092;SDS011;54011;50.772;7.730;2023-04-08T09:41:16;27.30;;;15.88;;
67092;SDS011;54011;50.772;7.730;2023-04-08T09:43:54;33.30;;;17.08;;
67092;SDS011;54011;50.772;7.730;2023-04-08T09:49:26;27.85;;;14.98;;
67092;SDS011;54011;50.772;7.730;2023-04-08T09:52:02;27.17;;;14.38;;
67092;SDS011;54011;50.772;7.730;2023-04-08T10:00:20;31.80;;;16.00;;
67092;SDS011;54011;50.772;7.730;2023-04-08T10:03:09;31.90;;;16.88;;
67092;SDS011;54011;50.772;7.730;2023-04-08T10:05:45;33.10;;;16.90;;
67092;SDS011;54011;50.772;7.730;2023-04-08T10:08:13;25.45;;;13.68;;
67092;SDS011;54011;50.772;7.730;2023-04-08T10:10:40;31.75;;;16.10;;
67092;SDS011;54011;50.772;7.730;2023-04-08T10:13:07;31.75;;;16.50;;
67092;SDS011;54011;50.772;7.730;2023-04-08T10:15:33;30.30;;;16.25;;
67092;SDS011;54011;50.772;7.730;2023-04-08T10:25:34;29.67;;;16.98;;
67092;SDS011;54011;50.772;7.730;2023-04-08T10:30:43;28.50;;;16.08;;
67092;SDS011;54011;50.772;7.730;2023-04-08T10:35:58;29.60;;;16.75;;
67092;SDS011;54011;50.772;7.730;2023-04-08T10:38:24;24.90;;;13.40;;
67092;SDS011;54011;50.772;7.730;2023-04-08T10:40:50;27.95;;;15.73;;
67092;SDS011;54011;50.772;7.730;2023-04-08T10:43:17;27.17;;;16.30;;
67092;SDS011;54011;50.772;7.730;2023-04-08T10:45:43;28.75;;;13.57;;
67092;SDS011;54011;50.772;7.730;2023-04-08T10:48:20;28.50;;;16.08;;
67092;SDS011;54011;50.772;7.730;2023-04-08T10:53:25;27.27;;;15.65;;
67092;SDS011;54011;50.772;7.730;2023-04-08T10:56:20;26.85;;;14.57;;
67092;SDS011;54011;50.772;7.730;2023-04-08T10:58:52;29.33;;;16.90;;
67092;SDS011;54011;50.772;7.730;2023-04-08T11:01:22;27.85;;;15.30;;
67092;SDS011;54011;50.772;7.730;2023-04-08T11:03:49;29.63;;;16.50;;
67092;SDS011;54011;50.772;7.730;2023-04-08T11:06:15;28.02;;;15.02;;
67092;SDS011;54011;50.772;7.730;2023-04-08T11:08:41;24.83;;;13.25;;
67092;SDS011;54011;50.772;7.730;2023-04-08T11:11:10;31.42;;;15.75;;
67092;SDS011;54011;50.772;7.730;2023-04-08T11:13:39;27.73;;;15.43;;
67092;SDS011;54011;50.772;7.730;2023-04-08T11:16:08;28.58;;;15.07;;
67092;SDS011;54011;50.772;7.730;2023-04-08T11:18:34;29.58;;;15.75;;
67092;SDS011;54011;50.772;7.730;2023-04-08T11:21:01;27.65;;;15.80;;
67092;SDS011;54011;50.772;7.730;2023-04-08T11:23:28;27.77;;;16.55;;
67092;SDS011;54011;50.772;7.730;2023-04-08T11:25:54;25.65;;;15.15;;
67092;SDS011;54011;50.772;7.730;2023-04-08T11:28:21;28.85;;;16.38;;
67092;SDS011;54011;50.772;7.730;2023-04-08T11:30:47;26.60;;;15.18;;
67092;SDS011;54011;50.772;7.730;2023-04-08T11:33:13;24.17;;;13.85;;
67092;SDS011;54011;50.772;7.730;2023-04-08T11:35:40;27.05;;;15.88;;
67092;SDS011;54011;50.772;7.730;2023-04-08T11:38:10;27.85;;;15.20;;
67092;SDS011;54011;50.772;7.730;2023-04-08T11:40:36;25.77;;;15.07;;
67092;SDS011;54011;50.772;7.730;2023-04-08T11:43:09;24.65;;;15.15;;
67092;SDS011;54011;50.772;7.730;2023-04-08T11:45:39;25.27;;;14.65;;
67092;SDS011;54011;50.772;7.730;2023-04-08T11:48:09;26.70;;;14.77;;
67092;SDS011;54011;50.772;7.730;2023-04-08T11:50:39;25.50;;;15.23;;
67092;SDS011;54011;50.772;7.730;2023-04-08T11:53:15;23.73;;;14.82;;
67092;SDS011;54011;50.772;7.730;2023-04-08T11:55:45;27.27;;;15.38;;
67092;SDS011;54011;50.772;7.730;2023-04-08T11:58:12;25.80;;;15.52;;
67092;SDS011;54011;50.772;7.730;2023-04-08T12:00:39;27.70;;;15.43;;
67092;SDS011;54011;50.772;7.730;2023-04-08T12:03:05;21.67;;;13.68;;
67092;SDS011;54011;50.772;7.730;2023-04-08T12:05:31;24.08;;;14.82;;
67092;SDS011;54011;50.772;7.730;2023-04-08T12:07:57;28.13;;;14.35;;
67092;SDS011;54011;50.772;7.730;2023-04-08T12:10:22;24.75;;;15.05;;
67092;SDS011;54011;50.772;7.730;2023-04-08T12:12:49;24.77;;;14.65;;
67092;SDS011;54011;50.772;7.730;2023-04-08T12:15:15;28.08;;;13.77;;
67092;SDS011;54011;50.772;7.730;2023-04-08T12:17:41;22.88;;;14.10;;
67092;SDS011;54011;50.772;7.730;2023-04-08T12:20:09;24.95;;;14.05;;
67092;SDS011;54011;50.772;7.730;2023-04-08T12:22:36;22.17;;;13.77;;
67092;SDS011;54011;50.772;7.730;2023-04-08T12:25:02;21.70;;;12.90;;
67092;SDS011;54011;50.772;7.730;2023-04-08T12:27:28;24.13;;;13.93;;
67092;SDS011;54011;50.772;7.730;2023-04-08T12:29:54;24.20;;;14.10;;
67092;SDS011;54011;50.772;7.730;2023-04-08T12:32:20;16.90;;;8.95;;
67092;SDS011;54011;50.772;7.730;2023-04-08T12:34:46;27.08;;;14.80;;
67092;SDS011;54011;50.772;7.730;2023-04-08T12:37:12;23.00;;;13.65;;
67092;SDS011;54011;50.772;7.730;2023-04-08T12:39:39;25.58;;;12.95;;
67092;SDS011;54011;50.772;7.730;2023-04-08T12:42:04;23.42;;;13.20;;
67092;SDS011;54011;50.772;7.730;2023-04-08T12:44:30;24.15;;;13.00;;
67092;SDS011;54011;50.772;7.730;2023-04-08T12:46:55;25.90;;;14.35;;
67092;SDS011;54011;50.772;7.730;2023-04-08T12:49:23;21.38;;;13.63;;
67092;SDS011;54011;50.772;7.730;2023-04-08T12:51:49;22.45;;;13.90;;
67092;SDS011;54011;50.772;7.730;2023-04-08T12:54:15;25.02;;;14.48;;
67092;SDS011;54011;50.772;7.730;2023-04-08T12:56:42;23.55;;;13.02;;
67092;SDS011;54011;50.772;7.730;2023-04-08T12:59:08;21.85;;;11.75;;
67092;SDS011;54011;50.772;7.730;2023-04-08T13:01:35;24.98;;;13.40;;
67092;SDS011;54011;50.772;7.730;2023-04-08T13:04:01;20.55;;;11.85;;
67092;SDS011;54011;50.772;7.730;2023-04-08T13:06:27;19.50;;;11.65;;
67092;SDS011;54011;50.772;7.730;2023-04-08T13:08:53;17.45;;;10.07;;
67092;SDS011;54011;50.772;7.730;2023-04-08T13:11:21;14.02;;;8.25;;
67092;SDS011;54011;50.772;7.730;2023-04-08T13:13:49;11.02;;;6.50;;
67092;SDS011;54011;50.772;7.730;2023-04-08T13:16:15;15.18;;;7.60;;
67092;SDS011;54011;50.772;7.730;2023-04-08T13:18:40;12.18;;;6.05;;
67092;SDS011;54011;50.772;7.730;2023-04-08T13:21:06;11.00;;;6.32;;
67092;SDS011;54011;50.772;7.730;2023-04-08T13:23:32;10.10;;;6.18;;
67092;SDS011;54011;50.772;7.730;2023-04-08T13:25:58;12.27;;;6.38;;
67092;SDS011;54011;50.772;7.730;2023-04-08T13:28:24;10.80;;;6.38;;
67092;SDS011;54011;50.772;7.730;2023-04-08T13:30:49;16.10;;;6.22;;
67092;SDS011;54011;50.772;7.730;2023-04-08T13:33:15;17.65;;;9.68;;
67092;SDS011;54011;50.772;7.730;2023-04-08T13:35:41;13.80;;;7.72;;
67092;SDS011;54011;50.772;7.730;2023-04-08T13:38:07;14.55;;;8.60;;
67092;SDS011;54011;50.772;7.730;2023-04-08T13:40:32;11.77;;;6.63;;
67092;SDS011;54011;50.772;7.730;2023-04-08T13:42:58;12.77;;;6.88;;
67092;SDS011;54011;50.772;7.730;2023-04-08T13:45:23;12.60;;;6.72;;
67092;SDS011;54011;50.772;7.730;2023-04-08T13:47:48;14.27;;;6.97;;
67092;SDS011;54011;50.772;7.730;2023-04-08T13:50:14;15.35;;;8.15;;
67092;SDS011;54011;50.772;7.730;2023-04-08T13:52:39;12.65;;;7.38;;
67092;SDS011;54011;50.772;7.730;2023-04-08T13:55:05;15.63;;;8.25;;
67092;SDS011;54011;50.772;7.730;2023-04-08T13:57:31;15.85;;;8.30;;
67092;SDS011;54011;50.772;7.730;2023-04-08T13:59:56;15.02;;;7.28;;
67092;SDS011;54011;50.772;7.730;2023-04-08T14:02:22;13.43;;;6.85;;
67092;SDS011;54011;50.772;7.730;2023-04-08T14:04:48;12.85;;;6.60;;
67092;SDS011;54011;50.772;7.730;2023-04-08T14:07:13;13.38;;;6.88;;
67092;SDS011;54011;50.772;7.730;2023-04-08T14:09:39;14.20;;;7.63;;
67092;SDS011;54011;50.772;7.730;2023-04-08T14:12:04;13.82;;;7.63;;
67092;SDS011;54011;50.772;7.730;2023-04-08T14:14:30;15.35;;;6.95;;
67092;SDS011;54011;50.772;7.730;2023-04-08T14:16:56;10.35;;;5.45;;
67092;SDS011;54011;50.772;7.730;2023-04-08T14:19:21;16.48;;;7.45;;
67092;SDS011;54011;50.772;7.730;2023-04-08T14:21:48;11.57;;;6.38;;
67092;SDS011;54011;50.772;7.730;2023-04-08T14:24:13;10.52;;;5.88;;
67092;SDS011;54011;50.772;7.730;2023-04-08T14:26:39;14.50;;;7.20;;
67092;SDS011;54011;50.772;7.730;2023-04-08T14:29:05;11.77;;;5.63;;
67092;SDS011;54011;50.772;7.730;2023-04-08T14:31:31;10.75;;;5.88;;
67092;SDS011;54011;50.772;7.730;2023-04-08T14:33:57;11.48;;;6.03;;
67092;SDS011;54011;50.772;7.730;2023-04-08T14:36:23;14.02;;;6.60;;
67092;SDS011;54011;50.772;7.730;2023-04-08T14:38:50;15.50;;;6.70;;
67092;SDS011;54011;50.772;7.730;2023-04-08T14:41:16;13.23;;;6.85;;
67092;SDS011;54011;50.772;7.730;2023-04-08T14:43:41;10.98;;;5.78;;
67092;SDS011;54011;50.772;7.730;2023-04-08T14:46:07;11.25;;;6.18;;
67092;SDS011;54011;50.772;7.730;2023-04-08T14:48:32;14.13;;;6.13;;
67092;SDS011;54011;50.772;7.730;2023-04-08T14:50:58;12.18;;;6.28;;
67092;SDS011;54011;50.772;7.730;2023-04-08T14:53:24;15.77;;;6.72;;
67092;SDS011;54011;50.772;7.730;2023-04-08T14:55:49;12.85;;;6.45;;
67092;SDS011;54011;50.772;7.730;2023-04-08T14:58:16;12.55;;;4.78;;
67092;SDS011;54011;50.772;7.730;2023-04-08T15:00:44;10.90;;;6.32;;